createdAt,value
2019-01-23T00:00:45.290Z,22.80
2019-01-23T00:03:18.338Z,22.60
2019-01-23T00:05:58.441Z,22.40
2019-01-23T00:08:31.110Z,22.30
2019-01-23T00:11:05.272Z,22.10
2019-01-23T00:13:38.092Z,22.00
2019-01-23T00:16:17.479Z,21.90
2019-01-23T00:18:50.147Z,21.80
2019-01-23T00:21:22.888Z,21.70
2019-01-23T00:23:55.575Z,21.50
2019-01-23T00:26:28.482Z,21.50
2019-01-23T00:29:01.215Z,21.40
2019-01-23T00:31:41.103Z,21.40
2019-01-23T00:34:13.766Z,21.40
2019-01-23T00:36:46.565Z,21.30
2019-01-23T00:39:19.233Z,21.10
2019-01-23T00:41:51.986Z,21.10
2019-01-23T00:44:24.736Z,21.00
2019-01-23T00:46:57.663Z,20.90
2019-01-23T00:49:30.579Z,20.80
2019-01-23T00:52:03.526Z,20.70
2019-01-23T00:54:36.330Z,20.60
2019-01-23T00:57:15.808Z,20.50
2019-01-23T00:59:49.448Z,20.50
2019-01-23T01:02:25.026Z,20.50
2019-01-23T01:04:57.677Z,20.40
2019-01-23T01:07:30.412Z,20.40
2019-01-23T01:10:03.070Z,20.30
2019-01-23T01:12:35.768Z,20.20
2019-01-23T01:15:14.982Z,20.20
2019-01-23T01:17:53.858Z,20.10
2019-01-23T01:20:26.618Z,20.20
2019-01-23T01:23:01.777Z,20.10
2019-01-23T01:25:34.995Z,20.00
2019-01-23T01:28:15.583Z,19.90
2019-01-23T01:30:48.297Z,19.80
2019-01-23T01:33:21.197Z,19.70
2019-01-23T01:35:54.413Z,19.70
2019-01-23T01:38:27.580Z,19.60
2019-01-23T01:41:00.307Z,19.50
2019-01-23T01:43:39.853Z,19.40
2019-01-23T01:46:12.478Z,19.30
2019-01-23T01:48:45.231Z,19.30
2019-01-23T01:51:17.993Z,19.30
2019-01-23T01:53:57.303Z,19.20
2019-01-23T01:56:29.898Z,19.10
2019-01-23T01:59:02.923Z,19.10
2019-01-23T02:01:35.742Z,19.00
2019-01-23T02:04:08.478Z,18.90
2019-01-23T02:06:41.164Z,18.90
2019-01-23T02:09:14.391Z,18.90
2019-01-23T02:11:47.068Z,18.90
2019-01-23T02:14:25.986Z,18.80
2019-01-23T02:17:05.732Z,18.80
2019-01-23T02:19:45.420Z,18.70
2019-01-23T02:22:18.099Z,18.60
2019-01-23T02:24:57.411Z,18.50
2019-01-23T02:27:30.177Z,18.50
2019-01-23T02:30:02.847Z,18.50
2019-01-23T02:32:35.546Z,18.40
2019-01-23T02:35:10.804Z,18.40
2019-01-23T02:37:43.471Z,18.40
2019-01-23T02:40:25.185Z,18.30
2019-01-23T02:42:57.767Z,18.30
2019-01-23T02:45:30.527Z,18.20
2019-01-23T02:48:03.270Z,18.10
2019-01-23T02:50:37.109Z,18.10
2019-01-23T02:53:09.848Z,18.10
2019-01-23T02:55:48.723Z,18.00
2019-01-23T02:58:21.305Z,18.00
2019-01-23T03:00:54.119Z,17.90
2019-01-23T03:03:26.770Z,17.90
2019-01-23T03:05:59.495Z,17.90
2019-01-23T03:08:32.179Z,17.90
2019-01-23T03:11:11.553Z,17.90
2019-01-23T03:13:44.265Z,17.80
2019-01-23T03:16:17.019Z,17.80
2019-01-23T03:18:49.869Z,17.80
2019-01-23T03:21:29.703Z,17.80
2019-01-23T03:24:02.441Z,17.70
2019-01-23T03:26:35.187Z,17.70
2019-01-23T03:29:07.951Z,17.70
2019-01-23T03:31:40.705Z,17.60
2019-01-23T03:34:13.417Z,17.50
2019-01-23T03:36:46.100Z,17.40
2019-01-23T03:39:18.802Z,17.40
2019-01-23T03:41:51.552Z,17.40
2019-01-23T03:44:24.166Z,17.30
2019-01-23T03:46:56.961Z,17.30
2019-01-23T03:49:29.662Z,17.30
2019-01-23T03:52:02.387Z,17.40
2019-01-23T03:54:35.187Z,17.40
2019-01-23T03:57:14.086Z,17.30
2019-01-23T03:59:46.724Z,17.30
2019-01-23T04:02:19.410Z,17.40
2019-01-23T04:04:52.274Z,17.30
2019-01-23T04:07:26.465Z,17.30
2019-01-23T04:09:59.222Z,17.30
2019-01-23T04:12:31.902Z,17.30
2019-01-23T04:15:04.657Z,17.20
2019-01-23T04:17:43.510Z,17.20
2019-01-23T04:20:19.152Z,17.10
2019-01-23T04:22:58.352Z,17.10
2019-01-23T04:25:31.237Z,17.00
2019-01-23T04:28:03.979Z,16.90
2019-01-23T04:30:36.604Z,16.90
2019-01-23T04:33:15.972Z,16.80
2019-01-23T04:35:48.623Z,16.80
2019-01-23T04:38:27.734Z,16.70
2019-01-23T04:41:00.401Z,16.70
2019-01-23T04:43:39.334Z,16.50
2019-01-23T04:46:11.986Z,16.50
2019-01-23T04:48:44.724Z,16.50
2019-01-23T04:51:35.535Z,16.40
2019-01-23T04:54:08.870Z,16.40
2019-01-23T04:56:41.578Z,16.30
2019-01-23T04:59:21.309Z,16.30
2019-01-23T05:01:54.119Z,16.30
2019-01-23T05:04:26.861Z,16.30
2019-01-23T05:06:59.661Z,16.30
2019-01-23T05:09:40.356Z,16.30
2019-01-23T05:12:13.031Z,16.40
2019-01-23T05:14:51.932Z,16.50
2019-01-23T05:17:24.674Z,16.40
2019-01-23T05:19:57.728Z,16.40
2019-01-23T05:22:36.879Z,16.40
2019-01-23T05:25:09.790Z,16.50
2019-01-23T05:27:42.759Z,16.50
2019-01-23T05:30:24.446Z,16.60
2019-01-23T05:32:57.135Z,16.60
2019-01-23T05:35:29.899Z,16.70
2019-01-23T05:38:02.590Z,16.70
2019-01-23T05:40:35.380Z,16.70
2019-01-23T05:43:08.037Z,16.70
2019-01-23T05:45:40.781Z,16.70
2019-01-23T05:48:13.411Z,16.70
2019-01-23T05:50:46.225Z,16.60
2019-01-23T05:53:18.856Z,16.70
2019-01-23T05:55:51.628Z,16.70
2019-01-23T05:58:24.264Z,16.70
2019-01-23T06:00:57.063Z,16.70
2019-01-23T06:03:29.642Z,16.70
2019-01-23T06:06:09.435Z,16.70
2019-01-23T06:08:42.088Z,16.70
2019-01-23T06:11:14.807Z,16.60
2019-01-23T06:13:47.403Z,16.70
2019-01-23T06:16:20.281Z,16.80
2019-01-23T06:18:53.038Z,16.70
2019-01-23T06:21:31.888Z,16.70
2019-01-23T06:24:04.789Z,16.50
2019-01-23T06:26:37.484Z,16.60
2019-01-23T06:29:10.167Z,16.50
2019-01-23T06:31:42.883Z,16.50
2019-01-23T06:34:15.476Z,16.50
2019-01-23T06:36:54.814Z,16.50
2019-01-23T06:39:27.512Z,16.50
2019-01-23T06:42:00.271Z,16.60
2019-01-23T06:44:32.950Z,16.60
2019-01-23T06:47:05.696Z,16.70
2019-01-23T06:49:38.446Z,16.70
2019-01-23T06:52:11.204Z,16.60
2019-01-23T06:54:43.894Z,16.60
2019-01-23T06:57:23.509Z,16.50
2019-01-23T06:59:56.634Z,16.60
2019-01-23T07:02:35.887Z,16.60
2019-01-23T07:05:09.271Z,16.60
2019-01-23T07:07:41.925Z,16.50
2019-01-23T07:10:17.840Z,16.40
2019-01-23T07:12:52.730Z,16.50
2019-01-23T07:15:25.369Z,16.50
2019-01-23T07:17:58.102Z,16.40
2019-01-23T07:20:31.437Z,16.40
2019-01-23T07:23:10.480Z,16.40
2019-01-23T07:25:49.959Z,16.40
2019-01-23T07:28:22.770Z,16.30
2019-01-23T07:30:55.431Z,16.40
2019-01-23T07:33:28.262Z,16.50
2019-01-23T07:36:00.986Z,16.40
2019-01-23T07:38:33.674Z,16.30
2019-01-23T07:41:06.379Z,16.20
2019-01-23T07:43:39.060Z,16.10
2019-01-23T07:46:11.714Z,16.10
2019-01-23T07:48:44.591Z,16.20
2019-01-23T07:51:17.262Z,16.20
2019-01-23T07:53:56.971Z,16.10
2019-01-23T07:56:29.665Z,16.10
2019-01-23T07:59:02.411Z,16.20
2019-01-23T08:01:35.104Z,16.20
2019-01-23T08:04:07.964Z,16.20
2019-01-23T08:06:40.683Z,16.20
2019-01-23T08:09:20.233Z,16.20
2019-01-23T08:11:52.826Z,16.30
2019-01-23T08:14:31.748Z,16.20
2019-01-23T08:17:04.483Z,16.30
2019-01-23T08:19:37.220Z,16.20
2019-01-23T08:22:09.926Z,16.40
2019-01-23T08:24:44.621Z,16.30
2019-01-23T08:27:17.508Z,16.30
2019-01-23T08:29:50.239Z,16.30
2019-01-23T08:32:22.908Z,16.30
2019-01-23T08:35:02.467Z,16.30
2019-01-23T08:37:35.144Z,16.30
2019-01-23T08:40:08.476Z,16.30
2019-01-23T08:42:41.138Z,16.40
2019-01-23T08:45:21.179Z,16.30
2019-01-23T08:47:53.879Z,16.30
2019-01-23T08:50:35.122Z,16.30
2019-01-23T08:53:07.785Z,16.20
2019-01-23T08:55:40.473Z,16.30
2019-01-23T08:58:13.203Z,16.40
2019-01-23T09:00:46.249Z,16.40
2019-01-23T09:03:19.028Z,16.50
2019-01-23T09:05:52.080Z,16.40
2019-01-23T09:08:25.279Z,16.50
2019-01-23T09:10:57.999Z,16.50
2019-01-23T09:13:30.736Z,16.50
2019-01-23T09:16:03.412Z,16.50
2019-01-23T09:18:36.135Z,16.40
2019-01-23T09:21:15.851Z,16.40
2019-01-23T09:23:48.526Z,16.30
2019-01-23T09:26:27.606Z,16.30
2019-01-23T09:29:00.369Z,16.30
2019-01-23T09:32:15.204Z,16.30
2019-01-23T09:35:11.968Z,16.30
2019-01-23T09:38:02.114Z,16.40
2019-01-23T09:40:53.920Z,16.40
2019-01-23T09:44:00.729Z,16.60
2019-01-23T09:47:02.130Z,16.50
2019-01-23T09:50:13.606Z,16.60
2019-01-23T09:52:58.239Z,16.50
2019-01-23T09:55:31.201Z,16.50
2019-01-23T09:58:07.233Z,16.60
2019-01-23T10:00:39.941Z,16.60
2019-01-23T10:03:12.625Z,16.60
2019-01-23T10:05:45.275Z,16.60
2019-01-23T10:08:17.953Z,16.70
2019-01-23T10:10:50.703Z,16.60
2019-01-23T10:13:23.406Z,16.60
2019-01-23T10:16:09.684Z,16.60
2019-01-23T10:18:42.334Z,16.60
2019-01-23T10:21:15.156Z,16.60
2019-01-23T10:23:47.811Z,16.70
2019-01-23T10:26:20.502Z,16.70
2019-01-23T10:28:53.136Z,16.60
2019-01-23T10:31:25.908Z,16.60
2019-01-23T10:33:58.630Z,16.60
2019-01-23T10:36:31.453Z,16.50
2019-01-23T10:39:05.488Z,16.50
2019-01-23T10:41:38.261Z,16.50
2019-01-23T10:44:10.849Z,16.50
2019-01-23T10:46:43.736Z,16.50
2019-01-23T10:49:16.462Z,16.50
2019-01-23T10:51:49.181Z,16.40
2019-01-23T10:54:21.855Z,16.40
2019-01-23T10:57:08.126Z,16.40
2019-01-23T10:59:40.820Z,16.40
2019-01-23T11:02:13.618Z,16.30
2019-01-23T11:04:46.380Z,16.40
2019-01-23T11:07:19.149Z,16.40
2019-01-23T11:09:51.794Z,16.40
2019-01-23T11:12:24.572Z,16.50
2019-01-23T11:14:57.268Z,16.50
2019-01-23T11:17:30.137Z,16.50
2019-01-23T11:20:02.864Z,16.50
2019-01-23T11:22:35.534Z,16.50
2019-01-23T11:25:08.599Z,16.50
2019-01-23T11:27:48.151Z,16.60
2019-01-23T11:30:23.246Z,16.50
2019-01-23T11:33:02.593Z,16.60
2019-01-23T11:35:35.201Z,16.70
2019-01-23T11:38:07.980Z,16.80
2019-01-23T11:40:40.631Z,16.70
2019-01-23T11:43:13.403Z,16.50
2019-01-23T11:45:46.132Z,16.40
2019-01-23T11:48:25.443Z,16.40
2019-01-23T11:50:58.109Z,16.50
2019-01-23T11:53:30.906Z,16.50
2019-01-23T11:56:03.577Z,16.50
2019-01-23T11:58:36.411Z,16.60
2019-01-23T12:01:08.987Z,16.50
2019-01-23T12:03:41.743Z,16.50
2019-01-23T12:06:14.412Z,16.40
2019-01-23T12:08:47.244Z,16.40
2019-01-23T12:11:19.954Z,16.40
2019-01-23T12:13:52.664Z,16.50
2019-01-23T12:16:25.385Z,16.40
2019-01-23T12:18:58.145Z,16.30
2019-01-23T12:21:31.133Z,16.40
2019-01-23T12:24:03.839Z,16.50
2019-01-23T12:26:36.495Z,16.50
2019-01-23T12:29:15.957Z,16.50
2019-01-23T12:31:48.708Z,16.50
2019-01-23T12:34:28.663Z,16.30
2019-01-23T12:37:01.572Z,16.30
2019-01-23T12:39:34.670Z,16.30
2019-01-23T12:42:10.967Z,16.30
2019-01-23T12:44:43.710Z,16.30
2019-01-23T12:47:16.522Z,16.20
2019-01-23T12:49:55.431Z,16.20
2019-01-23T12:52:28.124Z,16.20
2019-01-23T12:55:00.977Z,16.20
2019-01-23T12:57:33.652Z,16.20
2019-01-23T13:00:13.065Z,16.30
2019-01-23T13:02:45.783Z,16.20
2019-01-23T13:05:20.049Z,16.30
2019-01-23T13:07:52.823Z,16.40
2019-01-23T13:10:25.757Z,16.50
2019-01-23T13:12:59.570Z,16.60
2019-01-23T13:15:32.581Z,16.80
2019-01-23T13:18:05.313Z,16.80
2019-01-23T13:20:44.198Z,16.80
2019-01-23T13:23:20.369Z,16.80
2019-01-23T13:25:54.030Z,16.90
2019-01-23T13:28:26.772Z,16.90
2019-01-23T13:31:06.091Z,17.00
2019-01-23T13:33:38.792Z,17.00
2019-01-23T13:36:18.867Z,16.90
2019-01-23T13:38:51.587Z,16.90
2019-01-23T13:41:30.755Z,17.00
2019-01-23T13:44:03.387Z,17.00
2019-01-23T13:46:43.859Z,17.10
2019-01-23T13:49:16.546Z,17.20
2019-01-23T13:51:49.317Z,17.30
2019-01-23T13:54:22.094Z,17.40
2019-01-23T13:56:54.822Z,17.40
2019-01-23T13:59:27.653Z,17.50
2019-01-23T14:02:00.417Z,17.60
2019-01-23T14:04:33.292Z,17.70
2019-01-23T14:07:08.229Z,17.70
2019-01-23T14:09:40.949Z,17.80
2019-01-23T14:12:13.688Z,18.10
2019-01-23T14:14:46.355Z,18.30
2019-01-23T14:17:20.327Z,18.60
2019-01-23T14:19:53.153Z,19.00
2019-01-23T14:22:26.043Z,19.20
2019-01-23T14:24:58.719Z,19.40
2019-01-23T14:27:38.060Z,19.10
2019-01-23T14:38:18.271Z,19.90
2019-01-23T14:40:51.006Z,20.20
2019-01-23T14:43:31.051Z,20.50
2019-01-23T14:46:03.739Z,20.40
2019-01-23T14:48:43.973Z,19.90
2019-01-23T14:51:16.638Z,19.80
2019-01-23T14:53:49.500Z,20.00
2019-01-23T14:56:22.237Z,20.20
2019-01-23T14:58:56.394Z,20.20
2019-01-23T15:01:29.536Z,20.60
2019-01-23T15:04:08.782Z,21.20
2019-01-23T15:06:41.989Z,21.70
2019-01-23T15:09:21.827Z,21.40
2019-01-23T15:11:54.463Z,21.40
2019-01-23T15:14:27.256Z,22.00
2019-01-23T15:16:59.862Z,21.90
2019-01-23T15:19:33.967Z,22.20
2019-01-23T15:22:06.897Z,21.70
2019-01-23T15:24:39.769Z,22.20
2019-01-23T15:27:12.390Z,22.40
2019-01-23T15:29:51.238Z,22.40
2019-01-23T15:32:23.919Z,22.80
2019-01-23T15:35:03.577Z,22.60
2019-01-23T15:37:36.338Z,23.30
2019-01-23T15:40:11.062Z,23.10
2019-01-23T15:42:44.467Z,23.00
2019-01-23T15:45:20.895Z,23.60
2019-01-23T15:47:53.542Z,23.80
2019-01-23T15:50:27.348Z,23.70
2019-01-23T15:53:00.123Z,23.80
2019-01-23T15:55:32.878Z,23.60
2019-01-23T15:58:05.980Z,23.60
2019-01-23T16:00:46.017Z,23.80
2019-01-23T16:03:19.376Z,23.90
2019-01-23T16:05:59.400Z,24.20
2019-01-23T16:08:32.195Z,24.20
2019-01-23T16:11:05.084Z,23.60
2019-01-23T16:13:47.415Z,23.70
2019-01-23T16:16:39.094Z,24.00
2019-01-23T16:19:12.021Z,24.10
2019-01-23T16:21:45.678Z,24.20
2019-01-23T16:24:18.797Z,24.10
2019-01-23T16:27:00.493Z,24.00
2019-01-23T16:29:35.328Z,24.00
2019-01-23T16:32:22.236Z,24.20
2019-01-23T16:34:59.698Z,24.30
2019-01-23T16:37:42.683Z,24.40
2019-01-23T16:40:15.795Z,24.40
2019-01-23T16:42:48.537Z,24.60
2019-01-23T16:45:21.579Z,24.70
2019-01-23T16:48:08.433Z,24.90
2019-01-23T16:50:41.228Z,24.70
2019-01-23T16:53:21.262Z,24.30
2019-01-23T16:55:53.907Z,24.20
2019-01-23T16:58:26.618Z,24.60
2019-01-23T17:01:04.225Z,24.60
2019-01-23T17:03:43.910Z,24.60
2019-01-23T17:06:16.938Z,24.50
2019-01-23T17:08:56.889Z,24.80
2019-01-23T17:11:29.565Z,25.10
2019-01-23T17:14:03.307Z,25.00
2019-01-23T17:16:36.306Z,24.60
2019-01-23T17:19:09.156Z,24.70
2019-01-23T17:21:42.224Z,25.10
2019-01-23T17:24:14.947Z,25.30
2019-01-23T17:26:47.991Z,25.30
2019-01-23T17:29:21.077Z,25.90
2019-01-23T17:31:53.962Z,26.00
2019-01-23T17:34:34.144Z,25.90
2019-01-23T17:37:08.004Z,25.90
2019-01-23T17:39:49.615Z,26.20
2019-01-23T17:42:22.414Z,26.00
2019-01-23T17:44:55.121Z,26.20
2019-01-23T17:47:34.448Z,26.20
2019-01-23T17:50:07.901Z,26.40
2019-01-23T17:52:40.642Z,26.00
2019-01-23T17:55:19.656Z,26.50
2019-01-23T17:57:52.448Z,26.80
2019-01-23T18:00:29.572Z,26.90
2019-01-23T18:03:02.211Z,26.40
2019-01-23T18:05:43.647Z,26.80
2019-01-23T18:08:16.338Z,26.60
2019-01-23T18:10:49.057Z,26.70
2019-01-23T18:13:21.743Z,26.90
2019-01-23T18:15:54.544Z,27.20
2019-01-23T18:18:27.240Z,27.50
2019-01-23T18:21:00.056Z,27.40
2019-01-23T18:23:32.902Z,27.60
2019-01-23T18:26:05.712Z,27.70
2019-01-23T18:28:57.568Z,27.20
2019-01-23T18:31:47.543Z,27.50
2019-01-23T18:34:59.922Z,27.20
2019-01-23T18:38:22.150Z,27.20
2019-01-23T18:41:29.867Z,27.40
2019-01-23T18:44:38.845Z,27.70
2019-01-23T18:47:43.470Z,27.90
2019-01-23T18:51:28.689Z,27.60
2019-01-23T18:54:02.696Z,27.90
2019-01-23T18:56:41.549Z,28.20
2019-01-23T18:59:14.296Z,28.30
2019-01-23T19:01:47.024Z,28.30
2019-01-23T19:04:20.169Z,28.20
2019-01-23T19:06:53.291Z,27.70
2019-01-23T19:09:26.057Z,27.20
2019-01-23T19:11:59.947Z,27.40
2019-01-23T19:14:32.651Z,27.50
2019-01-23T19:17:07.745Z,27.90
2019-01-23T19:19:42.080Z,28.30
2019-01-23T19:22:21.719Z,28.20
2019-01-23T19:24:54.399Z,28.60
2019-01-23T19:27:27.116Z,28.20
2019-01-23T19:29:59.882Z,28.30
2019-01-23T19:32:39.127Z,28.50
2019-01-23T19:35:12.265Z,28.80
2019-01-23T19:37:51.883Z,28.60
2019-01-23T19:40:25.069Z,28.50
2019-01-23T19:42:58.236Z,28.40
2019-01-23T19:45:31.468Z,28.10
2019-01-23T19:48:11.351Z,28.70
2019-01-23T19:50:51.177Z,28.90
2019-01-23T19:53:24.947Z,28.70
2019-01-23T19:55:57.677Z,28.90
2019-01-23T19:58:31.311Z,28.70
2019-01-23T20:01:04.365Z,28.80
2019-01-23T20:03:44.353Z,29.40
2019-01-23T20:06:17.041Z,29.00
2019-01-23T20:08:50.102Z,28.40
2019-01-23T20:11:23.345Z,28.80
2019-01-23T20:13:56.501Z,29.00
2019-01-23T20:16:30.206Z,28.70
2019-01-23T20:19:04.322Z,28.80
2019-01-23T20:21:37.088Z,28.80
2019-01-23T20:24:09.902Z,29.50
2019-01-23T20:26:42.580Z,28.80
2019-01-23T20:29:15.449Z,28.90
2019-01-23T20:31:48.094Z,29.60
2019-01-23T20:34:20.923Z,29.50
2019-01-23T20:36:53.780Z,30.30
2019-01-23T20:39:33.312Z,30.40
2019-01-23T20:42:05.944Z,29.20
2019-01-23T20:44:38.746Z,28.70
2019-01-23T20:47:11.543Z,29.00
2019-01-23T20:49:50.963Z,29.50
2019-01-23T20:52:23.884Z,28.40
2019-01-23T20:54:56.605Z,28.60
2019-01-23T20:57:29.370Z,28.40
2019-01-23T21:00:09.265Z,28.50
2019-01-23T21:02:42.045Z,28.70
2019-01-23T21:05:22.328Z,28.40
2019-01-23T21:07:55.074Z,28.90
2019-01-23T21:10:34.444Z,28.70
2019-01-23T21:13:07.197Z,28.90
2019-01-23T21:15:46.894Z,28.30
2019-01-23T21:18:19.692Z,27.70
2019-01-23T21:20:52.403Z,28.30
2019-01-23T21:23:25.453Z,27.20
2019-01-23T21:25:58.192Z,27.20
2019-01-23T21:28:30.978Z,27.10
2019-01-23T21:31:03.872Z,26.30
2019-01-23T21:33:42.067Z,25.60
2019-01-23T21:36:10.823Z,25.70
2019-01-23T21:38:43.549Z,26.00
2019-01-23T21:41:24.967Z,25.50
2019-01-23T21:43:57.718Z,25.80
2019-01-23T21:46:31.738Z,25.80
2019-01-23T21:49:04.896Z,25.70
2019-01-23T21:51:38.606Z,25.30
2019-01-23T21:54:18.187Z,25.40
2019-01-23T21:56:51.069Z,25.40
2019-01-23T21:59:23.738Z,25.50
2019-01-23T22:02:04.585Z,25.20
2019-01-23T22:04:39.451Z,25.10
2019-01-23T22:07:19.965Z,25.00
2019-01-23T22:10:05.074Z,24.90
2019-01-23T22:12:39.396Z,25.20
2019-01-23T22:15:14.282Z,25.20
2019-01-23T22:17:54.551Z,25.40
2019-01-23T22:20:27.345Z,25.40
2019-01-23T22:23:00.201Z,25.10
2019-01-23T22:25:32.958Z,25.20
2019-01-23T22:28:05.823Z,25.30
2019-01-23T22:30:38.546Z,25.20
2019-01-23T22:33:11.391Z,25.00
2019-01-23T22:35:44.047Z,25.10
2019-01-23T22:38:23.226Z,25.20
2019-01-23T22:40:55.885Z,25.20
2019-01-23T22:43:28.618Z,25.20
2019-01-23T22:46:01.342Z,25.20
2019-01-23T22:48:40.832Z,25.00
2019-01-23T22:51:15.364Z,25.20
2019-01-23T22:53:47.848Z,25.10
2019-01-23T22:56:20.709Z,25.20
2019-01-23T22:58:53.576Z,25.50
2019-01-23T23:01:29.086Z,24.90
2019-01-23T23:04:03.552Z,24.80
2019-01-23T23:06:36.463Z,24.60
2019-01-23T23:09:12.248Z,24.80
2019-01-23T23:11:44.852Z,24.50
2019-01-23T23:14:17.590Z,24.70
2019-01-23T23:16:50.272Z,25.10
2019-01-23T23:19:23.157Z,25.00
2019-01-23T23:21:55.917Z,24.60
2019-01-23T23:24:28.920Z,24.60
2019-01-23T23:27:01.567Z,24.40
2019-01-23T23:29:34.327Z,24.00
2019-01-23T23:32:07.019Z,23.50
2019-01-23T23:34:46.690Z,23.00
2019-01-23T23:37:19.432Z,22.70
2019-01-23T23:39:52.674Z,22.40
2019-01-23T23:42:25.343Z,22.40
2019-01-23T23:44:58.134Z,22.40
2019-01-23T23:47:30.937Z,22.20
2019-01-23T23:50:03.635Z,21.90
2019-01-23T23:52:36.380Z,21.80
2019-01-23T23:55:09.965Z,21.80
2019-01-23T23:57:42.897Z,21.70
